Dexter, Maine
Current Conditions -  °F | °C
As of 2:53 AM on Saturday 01 Nov 2014 (Local Time) from KBGR Reporting Station
Light Rain Light Rain  
Wind Chill: 36°   Ceiling: 2200
Heat Index: 42°   Visibility: 8mi
Dew Point: 37°   Wind: 10mph
Humidity: 82%   Direction: 20°NNE
Pressure: 30.03"   Gusts: NA
Location:  45.02°N, 69.28°W
Report Text: KBGR 010653Z 02009KT 8SM -RA BKN022 OVC037 06/03 A3003 RMK AO2 RAB39 SLP169 P0000 T00560028
Loading
Personal Weather Stations






























Interactive Weather Map
Tropical Storm Tracking
New forecast layout! Learn more

10-Day Weather Forecast

Advertisements
Track Severe Weather on mobile